Time;durP1;ratioP1;P1;durP2;ratioP2;P2;SDS_P1;SDS_P2;PMS_P1;PMS_P2;Temp;Humidity;BMP_temperature;BMP_pressure;BME280_temperature;BME280_humidity;BME280_pressure;Samples;Min_cycle;Max_cycle;Signal;HPM_P1;HPM_P2
2021/06/28 00:00:29;;;;;;;1.60;1.50;;;;;;;21.39;75.47;98036.16;5076134;28;20237;-61
2021/06/28 00:02:58;;;;;;;1.73;1.63;;;;;;;21.36;76.19;98039.22;5075831;28;20239;-62
2021/06/28 00:05:26;;;;;;;1.87;1.70;;;;;;;21.32;76.59;98040.56;5075772;28;20234;-62
2021/06/28 00:07:53;;;;;;;1.63;1.53;;;;;;;21.33;76.78;98042.22;5075588;28;20235;-62
2021/06/28 00:10:22;;;;;;;1.73;1.57;;;;;;;21.25;77.65;98028.84;5075893;28;20214;-60
2021/06/28 00:12:49;;;;;;;1.50;1.40;;;;;;;21.26;76.83;98030.50;5075533;28;20219;-61
2021/06/28 00:15:18;;;;;;;1.53;1.43;;;;;;;21.25;77.00;98039.59;5073706;28;20240;-61
2021/06/28 00:17:46;;;;;;;1.60;1.50;;;;;;;21.20;76.73;98031.19;5075829;28;20223;-62
2021/06/28 00:20:16;;;;;;;1.57;1.47;;;;;;;21.15;76.58;98033.56;5075713;28;20606;-62
2021/06/28 00:22:44;;;;;;;1.47;1.37;;;;;;;21.07;78.21;98038.97;5075446;28;20211;-62
2021/06/28 00:25:13;;;;;;;1.77;1.67;;;;;;;21.03;79.17;98034.97;5075127;28;20218;-62
2021/06/28 00:27:41;;;;;;;1.93;1.83;;;;;;;20.92;80.85;98032.63;5075481;28;20231;-62
2021/06/28 00:30:10;;;;;;;2.30;1.70;;;;;;;20.85;82.69;98031.63;5075544;28;20204;-62
2021/06/28 00:32:37;;;;;;;1.70;1.60;;;;;;;20.76;84.26;98039.88;5075085;28;20673;-62
2021/06/28 00:35:04;;;;;;;2.00;1.90;;;;;;;20.69;86.21;98039.75;5075596;28;20210;-61
2021/06/28 00:37:32;;;;;;;2.50;2.30;;;;;;;20.60;87.35;98037.25;5075231;28;20207;-60
2021/06/28 00:39:58;;;;;;;2.13;1.70;;;;;;;20.50;88.79;98042.78;5075053;28;20692;-60
2021/06/28 00:42:25;;;;;;;2.13;1.97;;;;;;;20.38;89.87;98044.16;5073630;28;20214;-60
2021/06/28 00:44:52;;;;;;;2.10;1.90;;;;;;;20.29;90.60;98045.16;5075106;28;20218;-60
2021/06/28 00:47:19;;;;;;;1.80;1.70;;;;;;;20.33;90.81;98038.44;5075036;28;20215;-60
2021/06/28 00:49:46;;;;;;;1.90;1.80;;;;;;;20.30;91.37;98030.72;5074961;28;20215;-61
2021/06/28 00:52:13;;;;;;;2.73;2.00;;;;;;;20.33;91.92;98027.72;5074730;28;20204;-61
2021/06/28 00:54:42;;;;;;;2.30;2.10;;;;;;;20.33;91.79;98035.75;5074678;28;20207;-63
2021/06/28 00:57:09;;;;;;;2.27;1.87;;;;;;;20.36;90.92;98019.31;5074693;28;20676;-62
2021/06/28 00:59:35;;;;;;;2.10;1.93;;;;;;;20.35;91.02;98023.00;5074430;28;20214;-62
2021/06/28 01:02:04;;;;;;;2.20;2.00;;;;;;;20.31;92.18;98021.66;5074268;28;20673;-62
2021/06/28 01:04:31;;;;;;;1.97;1.87;;;;;;;20.24;93.77;98020.66;5074078;28;20215;-62
2021/06/28 01:06:58;;;;;;;2.07;1.90;;;;;;;20.19;95.65;98012.25;5073831;28;20735;-62
2021/06/28 01:09:25;;;;;;;1.93;1.83;;;;;;;20.17;97.34;98005.41;5073086;28;20598;-62
2021/06/28 01:11:53;;;;;;;2.10;2.00;;;;;;;20.10;98.99;98005.22;5073719;28;20210;-61
2021/06/28 01:14:20;;;;;;;2.10;2.00;;;;;;;20.07;99.77;98008.28;5073716;28;20207;-62
2021/06/28 01:16:46;;;;;;;2.40;2.20;;;;;;;20.07;99.79;98008.28;5074056;28;20239;-62
2021/06/28 01:19:15;;;;;;;2.10;2.00;;;;;;;19.98;99.45;98006.53;5074252;28;20294;-62
2021/06/28 01:21:43;;;;;;;2.40;2.20;;;;;;;19.96;98.78;98005.88;5074158;28;20215;-62
2021/06/28 01:24:12;;;;;;;2.60;2.40;;;;;;;19.96;98.59;97999.66;5073932;28;20687;-61
2021/06/28 01:26:39;;;;;;;1.80;1.70;;;;;;;19.95;98.16;97998.84;5073189;28;20573;-62
2021/06/28 01:29:05;;;;;;;2.27;2.00;;;;;;;19.95;97.70;97998.84;5073663;28;20238;-62
2021/06/28 01:31:32;;;;;;;2.10;2.00;;;;;;;19.93;98.18;98000.84;5074076;28;20221;-63
2021/06/28 01:33:59;;;;;;;2.43;2.23;;;;;;;19.89;99.03;98002.19;5072286;28;20227;-61
2021/06/28 01:36:25;;;;;;;2.50;2.30;;;;;;;19.83;100.00;98000.19;5073903;28;20665;-61
2021/06/28 01:38:53;;;;;;;2.63;2.43;;;;;;;19.80;100.00;98005.84;5074061;28;20204;-63
2021/06/28 01:41:21;;;;;;;2.47;2.27;;;;;;;19.79;100.00;97992.59;5073779;28;20751;-62
2021/06/28 01:43:47;;;;;;;2.40;2.20;;;;;;;19.71;100.00;97985.41;5074048;28;20212;-62
2021/06/28 01:46:14;;;;;;;2.60;2.40;;;;;;;19.65;100.00;97987.91;5073807;28;20218;-62
2021/06/28 01:48:40;;;;;;;2.80;2.60;;;;;;;19.58;100.00;97977.00;5073898;28;20239;-63
2021/06/28 01:51:09;;;;;;;2.70;2.50;;;;;;;19.49;100.00;97980.69;5074119;28;20207;-64
2021/06/28 01:53:36;;;;;;;2.80;2.60;;;;;;;19.40;100.00;97981.69;5074359;28;20222;-62
2021/06/28 01:56:05;;;;;;;2.40;2.20;;;;;;;19.33;100.00;97974.47;5073557;28;20204;-61
2021/06/28 01:58:33;;;;;;;2.30;2.10;;;;;;;19.28;100.00;97979.47;5073469;28;20207;-62
2021/06/28 02:00:59;;;;;;;2.77;2.40;;;;;;;19.23;100.00;97982.63;5071619;28;20221;-62
2021/06/28 02:03:27;;;;;;;2.33;2.13;;;;;;;19.22;100.00;97993.50;5072772;28;20219;-61
2021/06/28 02:05:56;;;;;;;2.93;2.73;;;;;;;19.26;100.00;97995.69;5072955;28;20642;-61
2021/06/28 02:08:24;;;;;;;2.70;2.50;;;;;;;19.30;100.00;97993.53;5073050;28;20243;-62
2021/06/28 02:10:53;;;;;;;2.70;2.50;;;;;;;19.33;100.00;97983.31;5073177;28;20203;-63
2021/06/28 02:13:21;;;;;;;2.90;2.70;;;;;;;19.35;100.00;97986.69;5073266;28;20681;-62
2021/06/28 02:15:49;;;;;;;2.73;2.53;;;;;;;19.39;100.00;97990.69;5073204;28;20235;-61
2021/06/28 02:18:16;;;;;;;2.67;2.47;;;;;;;19.40;100.00;97987.03;5073180;28;20214;-60
2021/06/28 02:20:43;;;;;;;2.50;2.30;;;;;;;19.37;100.00;97976.63;5073374;28;20229;-60
2021/06/28 02:23:24;;;;;;;2.80;2.60;;;;;;;19.32;100.00;97975.47;5073395;28;20204;-61
2021/06/28 02:25:54;;;;;;;2.70;2.50;;;;;;;19.24;100.00;97968.22;5071794;28;20218;-63
2021/06/28 02:28:20;;;;;;;2.63;2.43;;;;;;;19.15;100.00;97958.44;5073526;28;20322;-63
2021/06/28 02:30:49;;;;;;;2.73;2.53;;;;;;;19.09;100.00;97956.41;5073377;28;20234;-61
2021/06/28 02:33:16;;;;;;;2.90;2.70;;;;;;;19.04;100.00;97964.13;5073009;28;20645;-62
2021/06/28 02:35:42;;;;;;;2.77;2.57;;;;;;;19.07;100.00;97968.31;5072937;28;20573;-62
2021/06/28 02:38:09;;;;;;;3.03;2.83;;;;;;;19.07;100.00;97974.50;5071950;28;20207;-63
2021/06/28 02:40:35;;;;;;;3.27;2.97;;;;;;;19.09;100.00;97982.38;5072974;28;20211;-63
2021/06/28 02:43:02;;;;;;;2.67;2.30;;;;;;;19.14;100.00;97991.59;5072926;28;20219;-62
2021/06/28 02:45:28;;;;;;;2.87;2.67;;;;;;;19.22;100.00;97993.50;5073259;28;20214;-62
2021/06/28 02:47:56;;;;;;;2.90;2.70;;;;;;;19.29;100.00;98006.09;5073037;28;20207;-63
2021/06/28 02:50:23;;;;;;;3.07;2.60;;;;;;;19.34;100.00;98003.78;5073057;28;20571;-62
2021/06/28 02:52:49;;;;;;;3.10;2.80;;;;;;;19.41;100.00;97991.41;5071387;28;20207;-63
2021/06/28 02:55:16;;;;;;;3.67;2.83;;;;;;;19.53;100.00;98005.31;5072783;28;20544;-63
2021/06/28 02:57:42;;;;;;;4.50;2.80;;;;;;;19.56;100.00;98013.88;5072981;28;20212;-62
2021/06/28 03:00:13;;;;;;;3.00;2.77;;;;;;;19.59;100.00;98008.19;5072848;28;20211;-63
2021/06/28 03:02:40;;;;;;;3.40;3.10;;;;;;;19.62;100.00;98013.22;5072181;28;20211;-63
2021/06/28 03:05:10;;;;;;;3.23;2.70;;;;;;;19.73;100.00;98010.22;5072841;28;20215;-61
2021/06/28 03:07:37;;;;;;;3.10;2.90;;;;;;;19.72;100.00;98015.72;5072591;28;20207;-62
2021/06/28 03:10:05;;;;;;;3.27;2.60;;;;;;;19.74;100.00;98011.88;5072263;28;20227;-62
2021/06/28 03:12:32;;;;;;;2.60;2.40;;;;;;;19.76;100.00;98012.56;5072432;28;20717;-62
2021/06/28 03:14:58;;;;;;;3.17;2.87;;;;;;;19.79;100.00;98009.56;5072246;28;20727;-62
2021/06/28 03:17:25;;;;;;;3.03;2.83;;;;;;;19.82;100.00;98011.88;5072102;28;20211;-63
2021/06/28 03:19:51;;;;;;;2.90;2.70;;;;;;;19.83;100.00;98013.59;5071731;28;20573;-61
2021/06/28 03:22:19;;;;;;;2.80;2.60;;;;;;;19.84;100.00;98028.66;5072392;28;20582;-61
2021/06/28 03:24:46;;;;;;;4.23;2.73;;;;;;;19.78;100.00;98023.97;5072235;28;20204;-61
2021/06/28 03:27:12;;;;;;;2.50;2.30;;;;;;;19.75;100.00;98029.66;5072752;28;20212;-61
2021/06/28 03:29:39;;;;;;;2.50;2.30;;;;;;;19.76;100.00;98020.59;5071935;28;20681;-61
2021/06/28 03:32:06;;;;;;;2.50;2.30;;;;;;;19.74;100.00;98017.25;5071986;28;20217;-60
2021/06/28 03:34:32;;;;;;;2.77;2.57;;;;;;;19.71;100.00;98022.97;5071853;28;20207;-61
2021/06/28 03:36:59;;;;;;;2.60;2.40;;;;;;;19.68;100.00;98017.91;5071982;28;20204;-60
2021/06/28 03:39:26;;;;;;;2.67;2.47;;;;;;;19.66;100.00;98009.19;5070970;28;20218;-60
2021/06/28 03:41:53;;;;;;;2.80;2.60;;;;;;;19.64;100.00;98000.47;5071539;28;20551;-61
2021/06/28 03:44:19;;;;;;;2.97;2.77;;;;;;;19.62;100.00;97997.13;5070178;28;20624;-61
2021/06/28 03:46:46;;;;;;;2.63;2.43;;;;;;;19.61;100.00;97984.72;5072018;28;20207;-61
2021/06/28 03:49:12;;;;;;;2.90;2.70;;;;;;;19.61;100.00;97979.34;5073937;28;20227;-60
2021/06/28 03:51:39;;;;;;;3.10;2.80;;;;;;;19.53;100.00;97965.94;5075741;28;20211;-60
2021/06/28 03:54:05;;;;;;;3.10;2.63;;;;;;;19.38;100.00;97946.16;5075807;28;20230;-60
2021/06/28 03:56:33;;;;;;;3.30;3.00;;;;;;;19.18;100.00;97947.41;5076010;28;20206;-60
2021/06/28 03:59:00;;;;;;;4.17;3.40;;;;;;;18.94;100.00;97946.50;5075895;28;20207;-59
2021/06/28 04:01:26;;;;;;;3.80;3.50;;;;;;;18.80;100.00;97964.03;5075946;28;20214;-59
2021/06/28 04:03:54;;;;;;;4.23;3.70;;;;;;;18.68;100.00;97957.28;5075702;28;20213;-60
2021/06/28 04:06:21;;;;;;;3.97;3.57;;;;;;;18.60;100.00;97957.22;5076034;28;20208;-60
2021/06/28 04:08:48;;;;;;;3.83;3.53;;;;;;;18.54;100.00;97963.22;5075521;28;20238;-60
2021/06/28 04:11:17;;;;;;;5.00;3.60;;;;;;;18.58;100.00;97979.78;5073722;28;20322;-59
2021/06/28 04:13:45;;;;;;;4.27;3.87;;;;;;;18.63;100.00;97973.00;5073340;28;20246;-60
2021/06/28 04:16:12;;;;;;;4.23;3.70;;;;;;;18.64;100.00;97985.38;5074301;28;20227;-60
2021/06/28 04:18:39;;;;;;;4.07;3.67;;;;;;;18.68;100.00;97992.09;5074681;28;20219;-61
2021/06/28 04:21:07;;;;;;;5.00;4.00;;;;;;;18.72;100.00;97990.75;5074954;28;20218;-61
2021/06/28 04:23:34;;;;;;;4.03;3.73;;;;;;;18.77;100.00;97980.41;5073486;28;20584;-60
2021/06/28 04:26:00;;;;;;;4.37;3.70;;;;;;;18.84;100.00;97981.44;5072627;28;20204;-60
2021/06/28 04:28:29;;;;;;;4.33;3.50;;;;;;;18.92;100.00;97981.50;5073098;28;20215;-60
2021/06/28 04:30:56;;;;;;;3.60;3.30;;;;;;;18.92;100.00;97981.50;5074157;28;20605;-60
2021/06/28 04:33:23;;;;;;;3.53;3.23;;;;;;;18.99;100.00;97982.53;5073162;28;20214;-60
2021/06/28 04:35:49;;;;;;;3.80;3.50;;;;;;;19.01;100.00;97977.84;5070976;28;20219;-60
2021/06/28 04:38:16;;;;;;;3.43;3.20;;;;;;;19.04;100.00;97964.13;5073211;28;20568;-60
2021/06/28 04:40:43;;;;;;;3.60;3.30;;;;;;;19.08;100.00;97953.94;5074967;28;20230;-60
2021/06/28 04:43:09;;;;;;;3.97;3.40;;;;;;;19.10;100.00;97952.75;5075254;28;20211;-60
2021/06/28 04:45:36;;;;;;;3.70;3.40;;;;;;;19.06;100.00;97956.75;5075286;28;20212;-60
2021/06/28 04:48:04;;;;;;;3.70;3.40;;;;;;;19.02;100.00;97963.44;5075331;28;20214;-60
2021/06/28 04:50:31;;;;;;;3.70;3.40;;;;;;;19.03;100.00;97961.59;5074856;28;20239;-60
2021/06/28 04:52:58;;;;;;;4.10;3.70;;;;;;;19.05;100.00;97968.47;5074984;28;20211;-60
2021/06/28 04:55:25;;;;;;;4.07;3.77;;;;;;;19.08;100.00;97973.50;5074707;28;20206;-60
2021/06/28 04:57:52;;;;;;;4.30;3.90;;;;;;;19.14;100.00;97974.72;5075059;28;20215;-60
2021/06/28 05:00:21;;;;;;;4.10;3.70;;;;;;;19.23;100.00;97979.97;5073920;28;20219;-61
2021/06/28 05:02:48;;;;;;;4.20;3.87;;;;;;;19.37;100.00;97982.00;5073557;28;20216;-60
2021/06/28 05:05:16;;;;;;;3.70;3.40;;;;;;;19.47;100.00;97982.69;5074508;28;20211;-60
2021/06/28 05:07:43;;;;;;;3.70;3.40;;;;;;;19.60;100.00;97988.41;5074576;28;20214;-60
2021/06/28 05:10:11;;;;;;;3.63;3.33;;;;;;;20.00;100.00;97982.25;5073999;28;20235;-60
2021/06/28 05:12:38;;;;;;;3.80;3.50;;;;;;;20.14;100.00;97989.63;5072904;28;20218;-60
2021/06/28 05:15:07;;;;;;;4.07;3.40;;;;;;;20.31;100.00;97988.63;5072307;28;20237;-62
2021/06/28 05:17:34;;;;;;;3.67;3.37;;;;;;;20.31;100.00;97988.63;5072150;28;20620;-62
2021/06/28 05:20:01;;;;;;;6.40;3.77;;;;;;;20.53;100.00;97986.06;5072643;28;20212;-61
2021/06/28 05:22:30;;;;;;;3.47;3.17;;;;;;;21.71;100.00;97982.19;5073430;28;20223;-61
2021/06/28 05:24:56;;;;;;;3.33;3.10;;;;;;;22.96;91.21;97981.38;5073628;28;20215;-61
2021/06/28 05:27:23;;;;;;;3.37;3.07;;;;;;;24.03;82.84;97987.66;5073912;28;20230;-61
2021/06/28 05:29:54;;;;;;;4.10;3.17;;;;;;;24.94;76.16;97990.28;5071541;28;20251;-60
2021/06/28 05:32:21;;;;;;;3.27;3.03;;;;;;;25.60;71.94;97992.28;5073452;28;20301;-63
2021/06/28 05:34:48;;;;;;;4.10;3.20;;;;;;;26.05;70.29;97992.44;5073627;28;20211;-62
2021/06/28 05:37:14;;;;;;;3.43;3.13;;;;;;;26.38;67.43;97987.84;5074180;28;20638;-63
2021/06/28 05:39:42;;;;;;;3.40;3.10;;;;;;;26.36;67.97;97992.66;5073949;28;20673;-63
2021/06/28 05:42:08;;;;;;;4.13;3.10;;;;;;;25.61;70.93;97985.81;5073900;28;20234;-60
2021/06/28 05:44:35;;;;;;;4.23;3.27;;;;;;;24.98;73.38;97986.13;5074148;28;20242;-60
2021/06/28 05:47:01;;;;;;;3.23;2.70;;;;;;;24.24;77.34;97995.75;5074068;28;20216;-60
2021/06/28 05:49:30;;;;;;;3.63;3.20;;;;;;;23.75;80.68;97991.28;5073785;28;20253;-60
2021/06/28 05:51:58;;;;;;;3.70;3.33;;;;;;;24.00;81.42;97993.44;5073961;28;20297;-60
2021/06/28 05:54:24;;;;;;;4.27;3.80;;;;;;;24.63;76.76;97993.38;5071978;28;20622;-62
2021/06/28 05:56:52;;;;;;;3.00;2.70;;;;;;;25.72;72.39;97986.06;5073429;28;20210;-62
2021/06/28 05:59:19;;;;;;;3.10;2.80;;;;;;;26.81;67.96;97985.56;5073796;28;20218;-62
2021/06/28 06:01:45;;;;;;;3.30;3.00;;;;;;;27.90;62.82;97983.53;5073883;28;20207;-61
2021/06/28 06:04:14;;;;;;;3.53;2.83;;;;;;;28.89;58.78;97982.53;5073587;28;20218;-61
2021/06/28 06:06:40;;;;;;;3.20;2.90;;;;;;;29.74;55.05;97987.84;5073612;28;20221;-62
2021/06/28 06:09:07;;;;;;;2.90;2.70;;;;;;;30.35;53.59;97991.19;5073235;28;20688;-62
2021/06/28 06:11:33;;;;;;;3.00;2.70;;;;;;;30.67;52.15;97982.47;5073452;28;20211;-62
2021/06/28 06:14:01;;;;;;;3.40;2.70;;;;;;;30.89;51.32;97983.56;5073299;28;20218;-62
2021/06/28 06:16:28;;;;;;;2.92;2.60;;;;;;;30.94;50.89;97991.84;5073713;28;20599;-62
2021/06/28 06:18:55;;;;;;;4.65;2.60;;;;;;;31.08;50.42;97985.09;5073381;28;20216;-62
2021/06/28 06:21:22;;;;;;;3.78;3.10;;;;;;;31.10;50.84;97987.56;5071817;28;20211;-61
2021/06/28 06:23:48;;;;;;;3.47;3.17;;;;;;;31.15;50.58;97995.88;5073541;28;20211;-62
2021/06/28 06:26:15;;;;;;;3.30;2.92;;;;;;;31.22;49.54;97993.88;5073151;28;20673;-62
2021/06/28 06:28:41;;;;;;;4.10;2.58;;;;;;;31.41;49.02;97990.75;5073390;28;20214;-62
2021/06/28 06:31:09;;;;;;;2.60;2.40;;;;;;;31.45;48.58;97993.84;5073197;28;20231;-62
2021/06/28 06:33:36;;;;;;;2.70;2.50;;;;;;;31.41;48.89;97985.31;5073382;28;20214;-62
2021/06/28 06:36:02;;;;;;;4.32;2.75;;;;;;;31.34;47.94;97987.34;5073319;28;20210;-62
2021/06/28 06:38:30;;;;;;;4.47;2.53;;;;;;;31.26;48.23;97981.41;5073271;28;20207;-62
2021/06/28 06:40:56;;;;;;;2.60;2.40;;;;;;;31.38;48.05;97983.06;5073277;28;20207;-62
2021/06/28 06:43:23;;;;;;;3.13;2.38;;;;;;;31.62;47.70;97981.09;5072866;28;20208;-62
2021/06/28 06:45:49;;;;;;;3.30;2.60;;;;;;;31.63;46.26;97983.59;5071381;28;20208;-62
2021/06/28 06:48:17;;;;;;;2.95;2.75;;;;;;;31.64;46.73;97989.88;5072786;28;20673;-62
2021/06/28 06:50:44;;;;;;;3.60;2.80;;;;;;;31.34;48.53;97989.22;5073218;28;20245;-62
2021/06/28 06:53:10;;;;;;;2.75;2.55;;;;;;;30.93;48.62;98003.03;5072684;28;20204;-62
2021/06/28 06:55:37;;;;;;;2.78;2.20;;;;;;;30.07;52.04;98010.06;5073041;28;20200;-62
2021/06/28 06:58:08;;;;;;;3.25;2.80;;;;;;;29.69;50.58;98004.06;5073143;28;20219;-62
2021/06/28 07:00:34;;;;;;;2.55;2.35;;;;;;;29.79;49.23;98015.25;5072671;28;20760;-62
2021/06/28 07:03:01;;;;;;;2.97;2.53;;;;;;;30.08;50.59;98017.16;5072596;28;20219;-62
2021/06/28 07:05:29;;;;;;;3.55;2.65;;;;;;;30.42;50.26;98016.44;5072553;28;20207;-62
2021/06/28 07:07:55;;;;;;;4.78;2.97;;;;;;;30.65;50.07;98011.91;5073101;28;20211;-62
2021/06/28 07:10:23;;;;;;;3.53;2.88;;;;;;;30.68;49.01;98019.63;5072466;28;20231;-62
2021/06/28 07:12:50;;;;;;;3.70;2.75;;;;;;;30.68;49.76;98016.88;5071352;28;20227;-62
2021/06/28 07:15:18;;;;;;;3.60;2.80;;;;;;;30.06;49.38;98022.00;5072822;28;20322;-62
2021/06/28 07:17:45;;;;;;;3.50;2.65;;;;;;;29.36;53.69;98025.41;5072872;28;20204;-62
2021/06/28 07:20:15;;;;;;;2.88;2.67;;;;;;;28.51;56.02;98031.63;5072810;28;20212;-61
2021/06/28 07:22:44;;;;;;;3.70;2.38;;;;;;;27.57;59.89;98031.72;5072537;28;20672;-62
2021/06/28 07:25:14;;;;;;;2.28;2.10;;;;;;;27.05;60.72;98031.84;5076367;28;20215;-62
2021/06/28 07:27:41;;;;;;;2.00;1.70;;;;;;;26.78;61.81;98029.38;5076721;28;20215;-62
2021/06/28 07:30:10;;;;;;;2.45;2.25;;;;;;;26.61;63.33;98028.13;5076559;28;20250;-62
2021/06/28 07:32:38;;;;;;;2.60;2.40;;;;;;;26.49;64.40;98030.59;5076672;28;20211;-63
2021/06/28 07:35:06;;;;;;;2.30;2.10;;;;;;;26.45;66.18;98029.34;5076701;28;20219;-61
2021/06/28 07:37:33;;;;;;;2.70;2.50;;;;;;;26.31;65.39;98021.41;5076394;28;20207;-62
2021/06/28 07:40:03;;;;;;;2.22;2.03;;;;;;;26.28;65.20;98025.34;5075097;28;20234;-61
2021/06/28 07:42:29;;;;;;;2.53;2.20;;;;;;;26.26;65.50;98035.56;5076333;28;20230;-62
2021/06/28 07:44:56;;;;;;;4.75;2.33;;;;;;;26.24;66.37;98031.41;5076378;28;20215;-62
2021/06/28 07:47:22;;;;;;;3.10;2.40;;;;;;;26.15;67.11;98033.47;5076139;28;20215;-62
2021/06/28 07:49:49;;;;;;;2.75;2.55;;;;;;;26.08;65.25;98032.63;5075954;28;20237;-61
2021/06/28 07:52:15;;;;;;;3.03;2.70;;;;;;;26.18;67.45;98034.94;5076243;28;20226;-62
2021/06/28 07:54:43;;;;;;;3.17;2.20;;;;;;;26.23;65.57;98041.44;5075928;28;20219;-61
2021/06/28 07:57:12;;;;;;;3.22;2.40;;;;;;;26.22;65.51;98028.06;5075809;28;20734;-62
2021/06/28 07:59:39;;;;;;;2.70;2.40;;;;;;;26.34;67.04;98032.66;5076113;28;20207;-62
2021/06/28 08:02:05;;;;;;;2.63;2.40;;;;;;;26.38;63.31;98033.94;5076062;28;20208;-62
2021/06/28 08:04:32;;;;;;;3.42;2.80;;;;;;;26.45;65.93;98029.34;5072634;28;20223;-62
2021/06/28 08:06:58;;;;;;;2.88;2.60;;;;;;;26.62;64.24;98025.22;5073072;28;20211;-62
2021/06/28 08:09:25;;;;;;;2.60;2.40;;;;;;;26.72;62.73;98022.91;5075059;28;20214;-63
2021/06/28 08:11:51;;;;;;;2.60;2.40;;;;;;;26.80;62.73;98027.28;5075008;28;20246;-62
2021/06/28 08:14:19;;;;;;;2.45;2.25;;;;;;;26.98;64.32;98020.97;5075474;28;20674;-62
2021/06/28 08:16:46;;;;;;;2.25;2.15;;;;;;;27.16;58.38;98023.09;5075831;28;20607;-62
2021/06/28 08:19:13;;;;;;;2.55;1.95;;;;;;;26.97;58.98;98021.22;5075516;28;20218;-62
2021/06/28 08:21:40;;;;;;;2.45;2.17;;;;;;;26.83;59.76;98022.25;5075852;28;20682;-62
2021/06/28 08:24:09;;;;;;;2.60;2.40;;;;;;;26.81;60.38;98018.94;5075413;28;20212;-62
2021/06/28 08:26:36;;;;;;;4.05;2.60;;;;;;;26.92;59.78;98015.59;5075699;28;20211;-62
2021/06/28 08:29:04;;;;;;;3.53;2.35;;;;;;;27.13;59.14;98007.19;5075315;28;20665;-62
2021/06/28 08:31:33;;;;;;;2.25;2.15;;;;;;;27.46;56.25;98008.75;5074125;28;20661;-62
2021/06/28 08:33:59;;;;;;;2.08;1.98;;;;;;;27.45;52.67;98006.28;5075488;28;20211;-62
2021/06/28 08:36:26;;;;;;;1.90;1.80;;;;;;;27.33;54.54;98001.72;5075679;28;20207;-62
2021/06/28 08:38:52;;;;;;;2.92;1.90;;;;;;;27.36;55.89;98009.47;5075418;28;20218;-62
2021/06/28 08:41:20;;;;;;;2.40;2.20;;;;;;;27.38;54.95;98001.94;5075461;28;20615;-62
2021/06/28 08:43:48;;;;;;;2.78;1.95;;;;;;;27.52;55.43;98002.47;5075609;28;20207;-62
2021/06/28 08:46:15;;;;;;;2.70;2.10;;;;;;;27.50;53.61;98003.75;5075003;28;20213;-62
2021/06/28 08:48:44;;;;;;;2.50;2.30;;;;;;;27.64;55.94;97999.94;5071870;28;20588;-62
2021/06/28 08:51:11;;;;;;;2.40;2.20;;;;;;;27.57;51.29;98001.84;5074240;28;20231;-62
2021/06/28 08:53:38;;;;;;;2.17;1.98;;;;;;;27.48;54.03;97999.59;5072455;28;20219;-62
2021/06/28 08:56:07;;;;;;;1.95;1.85;;;;;;;27.44;52.52;98001.88;5071362;28;20208;-62
2021/06/28 08:58:34;;;;;;;2.05;1.85;;;;;;;27.56;53.85;98006.44;5071496;28;20624;-62
2021/06/28 09:01:00;;;;;;;2.20;2.00;;;;;;;27.85;55.58;98007.78;5073211;28;20700;-62
2021/06/28 09:03:27;;;;;;;2.38;2.17;;;;;;;28.09;52.71;98015.16;5072918;28;20215;-62
2021/06/28 09:05:59;;;;;;;1.95;1.85;;;;;;;28.34;51.67;98007.88;5074928;28;20215;-62
2021/06/28 09:08:26;;;;;;;3.03;1.88;;;;;;;28.47;51.06;98013.25;5074850;28;20211;-62
2021/06/28 09:10:53;;;;;;;2.30;2.20;;;;;;;28.55;52.45;98026.59;5074573;28;20231;-62
2021/06/28 09:13:35;;;;;;;2.17;1.98;;;;;;;28.56;51.54;98039.13;5074565;28;20341;-62
2021/06/28 09:16:13;;;;;;;1.90;1.80;;;;;;;28.70;50.09;98035.22;5074336;28;20235;-62
2021/06/28 09:18:50;;;;;;;2.20;2.00;;;;;;;28.86;48.50;98035.50;5074360;28;20253;-62
2021/06/28 09:21:24;;;;;;;2.85;2.13;;;;;;;29.00;48.82;98036.25;5074164;28;20207;-62
2021/06/28 09:23:50;;;;;;;2.10;2.00;;;;;;;29.05;49.31;98037.22;5072767;28;20211;-61
2021/06/28 09:26:18;;;;;;;2.13;1.98;;;;;;;29.17;48.67;98037.34;5074208;28;20586;-62
2021/06/28 09:28:48;;;;;;;2.00;1.90;;;;;;;29.16;47.94;98032.94;5073912;28;20677;-63
2021/06/28 09:31:29;;;;;;;2.10;1.90;;;;;;;29.26;46.22;98025.06;5074037;28;20235;-62
2021/06/28 09:34:05;;;;;;;2.40;1.88;;;;;;;29.03;46.70;98031.19;5074317;28;20223;-62
2021/06/28 09:36:43;;;;;;;3.15;2.03;;;;;;;28.92;46.36;98040.03;5074046;28;20214;-62
2021/06/28 09:39:20;;;;;;;2.08;1.98;;;;;;;28.74;44.96;98026.41;5073644;28;20677;-62
2021/06/28 09:41:47;;;;;;;2.10;2.00;;;;;;;28.87;46.22;98025.47;5073548;28;20203;-62
2021/06/28 09:44:14;;;;;;;2.03;1.80;;;;;;;29.06;46.82;98019.03;5074101;28;20207;-62
2021/06/28 09:46:40;;;;;;;2.13;1.98;;;;;;;28.92;45.46;98022.91;5073574;28;20215;-62
2021/06/28 09:49:08;;;;;;;2.33;2.13;;;;;;;28.82;46.64;98017.13;5072290;28;20214;-62
2021/06/28 09:51:38;;;;;;;2.70;1.85;;;;;;;28.75;45.82;98016.34;5073791;28;20361;-62
2021/06/28 09:54:20;;;;;;;2.15;1.92;;;;;;;28.75;45.47;98016.34;5073399;28;20665;-62
2021/06/28 09:56:48;;;;;;;2.00;1.90;;;;;;;28.81;46.01;98007.31;5073721;28;20210;-62
2021/06/28 09:59:29;;;;;;;1.92;1.83;;;;;;;28.93;47.11;98013.69;5073812;28;20257;-62
2021/06/28 10:02:24;;;;;;;2.22;2.00;;;;;;;28.87;49.48;98009.13;5073785;28;20294;-62
2021/06/28 10:04:58;;;;;;;2.28;2.00;;;;;;;28.83;44.51;97997.03;5073778;28;20216;-62
2021/06/28 10:07:31;;;;;;;4.55;1.95;;;;;;;28.90;43.02;97997.78;5073568;28;20216;-62
2021/06/28 10:10:15;;;;;;;1.88;1.77;;;;;;;28.92;41.62;97992.97;5073502;28;20207;-62
2021/06/28 10:12:45;;;;;;;1.85;1.65;;;;;;;29.20;45.72;97998.75;5073657;28;20251;-62
2021/06/28 10:15:13;;;;;;;1.77;1.67;;;;;;;29.14;44.31;97988.78;5072009;28;20245;-62
2021/06/28 10:17:40;;;;;;;2.38;2.08;;;;;;;29.03;46.40;97984.09;5073652;28;20218;-62
2021/06/28 10:20:09;;;;;;;2.08;1.98;;;;;;;29.11;47.52;97983.78;5073573;28;20208;-63
2021/06/28 10:22:39;;;;;;;2.03;1.92;;;;;;;29.23;49.14;97982.00;5073660;28;20211;-61
2021/06/28 10:25:07;;;;;;;2.08;1.98;;;;;;;29.24;50.29;97978.19;5073061;28;20669;-62
2021/06/28 10:27:34;;;;;;;2.20;2.00;;;;;;;29.29;49.51;97979.16;5073135;28;20578;-62
2021/06/28 10:30:05;;;;;;;2.05;1.85;;;;;;;29.35;48.46;97983.69;5073715;28;20215;-62
2021/06/28 10:32:32;;;;;;;2.20;2.00;;;;;;;29.38;49.62;97979.69;5070098;28;20305;-62
2021/06/28 10:34:59;;;;;;;2.00;1.90;;;;;;;29.40;47.81;97978.41;5072350;28;20584;-62
2021/06/28 10:37:39;;;;;;;2.58;2.20;;;;;;;29.44;45.45;97967.91;5072122;28;20302;-63
2021/06/28 10:40:10;;;;;;;2.10;2.00;;;;;;;29.51;47.52;97974.09;5071606;28;20211;-62
2021/06/28 10:42:39;;;;;;;2.65;2.00;;;;;;;29.55;48.95;97972.59;5069112;28;20580;-62
2021/06/28 10:45:08;;;;;;;2.10;2.00;;;;;;;29.65;51.37;97970.19;5071376;28;20642;-62
2021/06/28 10:47:35;;;;;;;2.08;1.98;;;;;;;29.75;50.04;97967.72;5071698;28;20207;-62
2021/06/28 10:50:01;;;;;;;2.30;2.20;;;;;;;29.81;49.12;97969.53;5072070;28;20214;-63
2021/06/28 10:52:47;;;;;;;2.63;2.05;;;;;;;29.91;48.16;97964.34;5071663;28;20731;-63
2021/06/28 10:55:37;;;;;;;2.53;1.88;;;;;;;30.06;48.28;97967.47;5071496;28;20207;-62
2021/06/28 10:58:23;;;;;;;1.80;1.70;;;;;;;30.04;46.37;97958.69;5071347;28;20333;-62
2021/06/28 11:00:51;;;;;;;2.20;2.00;;;;;;;30.02;48.71;97958.94;5073132;28;20285;-62
2021/06/28 11:03:34;;;;;;;2.17;1.98;;;;;;;30.00;47.72;97952.03;5073123;28;20211;-63
2021/06/28 11:06:15;;;;;;;2.10;2.00;;;;;;;30.08;45.39;97954.47;5072714;28;20206;-62
2021/06/28 11:08:56;;;;;;;2.20;2.10;;;;;;;30.26;47.52;97948.97;5071372;28;20204;-62
2021/06/28 11:11:55;;;;;;;2.20;2.00;;;;;;;30.26;43.73;97951.69;5072915;28;20284;-62
2021/06/28 11:14:39;;;;;;;2.22;2.13;;;;;;;29.97;43.83;97949.81;5072633;28;20218;-62
2021/06/28 11:17:08;;;;;;;2.33;2.20;;;;;;;29.94;43.99;97947.53;5072968;28;20212;-62
2021/06/28 11:20:06;;;;;;;2.65;2.10;;;;;;;30.21;47.69;97951.56;5073186;28;20220;-62
2021/06/28 11:22:44;;;;;;;2.92;2.15;;;;;;;30.17;44.12;97936.72;5072990;28;20298;-62
2021/06/28 11:25:17;;;;;;;2.50;2.30;;;;;;;29.89;45.43;97928.34;5072869;28;20229;-62
2021/06/28 11:27:45;;;;;;;2.70;2.50;;;;;;;29.96;47.88;97929.06;5072769;28;20207;-62
2021/06/28 11:30:20;;;;;;;2.33;2.13;;;;;;;30.15;51.10;97917.03;5073044;28;20215;-62
2021/06/28 11:32:58;;;;;;;2.55;2.35;;;;;;;30.26;48.62;97913.50;5072298;28;20243;-62
2021/06/28 11:35:39;;;;;;;2.80;2.58;;;;;;;30.11;47.92;97927.59;5071045;28;20207;-62
2021/06/28 11:38:14;;;;;;;2.28;2.10;;;;;;;30.05;50.24;97922.19;5072578;28;20212;-62